Daiei Maru No.1 — JD3741 — position and weather

sailwx.info

Track history (hours):
 
Tides and Currents Weather Stations Pressure Air Temp Water Temp Dewpoint Dewpoint Depression Visibility Wind Speed Wind Dir Waves Ship Positions

Daiei Maru No.1

Last reported at 2018-Jan-23 07:27 UTC. Time now 2018-Jan-23 10:09 UTC.
Position N 34°07' E 132°46'.

Length 79 m; draft 4.2 m.

Type: Cargo ship. MMSI: 431005676.

Date/timePositionNaut miles runAvg speedWind from/ knotsBaromVisibWave heightAir tempDewpointWater temp
2018-Jan-23 07:27N 34°07' E 132°46'511.9
2018-Jan-23 07:00N 34°05' E 132°41'612.2
2018-Jan-23 06:30N 34°03' E 132°34'611.2
2018-Jan-23 05:57N 34°05' E 132°27'612.5
2018-Jan-23 05:30N 34°08' E 132°21'612.1
2018-Jan-23 05:01N 34°11' E 132°15'0 0.3
2018-Jan-23 04:28N 34°11' E 132°15'0 0.0
2018-Jan-23 03:43N 34°11' E 132°15'0 0.1
2018-Jan-23 03:28N 34°11' E 132°15'0 0.0
2018-Jan-23 02:58N 34°11' E 132°15'1 1.2
2018-Jan-23 02:30N 34°11' E 132°14'0 0.0
2018-Jan-23 02:00N 34°11' E 132°14'0 0.0
2018-Jan-23 01:29N 34°11' E 132°14'0 0.0
2018-Jan-23 00:59N 34°11' E 132°14'0 0.0
2018-Jan-23 00:29N 34°11' E 132°14'0 0.0
2018-Jan-22 23:56N 34°11' E 132°14'0 0.0
2018-Jan-22 23:29N 34°11' E 132°14'0 0.2
2018-Jan-22 23:00N 34°11' E 132°14'0 1.0
2018-Jan-22 22:29N 34°11' E 132°15'0 0.0
2018-Jan-22 21:59N 34°11' E 132°15'0 0.0
2018-Jan-22 21:29N 34°11' E 132°15'0 0.0
2018-Jan-22 20:56N 34°11' E 132°15'0 0.0
2018-Jan-22 20:29N 34°11' E 132°15'0 0.0
2018-Jan-22 19:59N 34°11' E 132°15'0 0.0
2018-Jan-22 19:29N 34°11' E 132°15'0 0.0
2018-Jan-22 18:59N 34°11' E 132°15'0 0.0
2018-Jan-22 18:26N 34°11' E 132°15'0 0.0
2018-Jan-22 17:59N 34°11' E 132°15'0 0.0
2018-Jan-22 17:29N 34°11' E 132°15'0 0.0
2018-Jan-22 16:59N 34°11' E 132°15'0 0.0
2018-Jan-22 16:29N 34°11' E 132°15'0 0.0
2018-Jan-22 15:59N 34°11' E 132°15'0 0.8
2018-Jan-22 15:30N 34°11' E 132°15'510.2
2018-Jan-22 15:00N 34°06' E 132°17'612.4
2018-Jan-22 14:30N 34°00' E 132°14'711.6
2018-Jan-22 13:55N 33°55' E 132°09'512.2
2018-Jan-22 13:29N 33°49' E 132°09'612.5
2018-Jan-22 13:00N 33°46' E 132°02'612.2
2018-Jan-22 12:30N 33°50' E 131°57'612.5
2018-Jan-22 12:00N 33°54' E 131°51'612.2
2018-Jan-22 11:30N 33°58' E 131°46'4 0.4
2018-Jan-22 01:37N 34°02' E 131°47'110.8
2018-Jan-22 01:30N 34°01' E 131°46'510.3
2018-Jan-22 01:00N 33°56' E 131°48'712.6
2018-Jan-22 00:27N 33°52' E 131°54'612.6
2018-Jan-22 00:00N 33°48' E 131°59'2311.4
2018-Jan-21 21:59N 33°51' E 132°27'613.0
2018-Jan-21 21:30N 33°53' E 132°34'713.5
2018-Jan-21 21:00N 33°57' E 132°41'7812.1
2018-Jan-21 14:32N 34°26' E 134°08'014.6
2018-Jan-21 14:30N 34°26' E 134°09'713.2
2018-Jan-21 14:00N 34°24' E 134°17'612.9
2018-Jan-21 13:31N 34°21' E 134°24'612.5
2018-Jan-21 13:00N 34°19' E 134°30'612.7
2018-Jan-21 12:30N 34°16' E 134°37'1013.0
2018-Jan-21 11:45N 34°08' E 134°45'312.3
2018-Jan-21 11:31N 34°06' E 134°47'712.3
2018-Jan-21 10:56N 34°01' E 134°53'511.9
2018-Jan-21 10:30N 33°57' E 134°57'611.5
2018-Jan-21 09:58N 33°52' E 135°02'81 9.4
2018-Jan-21 01:17N 34°05' E 136°39'512.7
2018-Jan-21 00:53N 34°08' E 136°44'6011.3
2018-Jan-20 19:35N 34°31' E 137°51'111.1
2018-Jan-20 19:30N 34°31' E 137°52'610.9
2018-Jan-20 18:55N 34°32' E 137°60'510.5
2018-Jan-20 18:28N 34°32' E 138°05'510.6
2018-Jan-20 18:00N 34°33' E 138°11'610.9
2018-Jan-20 17:24N 34°33' E 138°19'611.1
2018-Jan-20 16:54N 34°33' E 138°26'511.6
2018-Jan-20 16:30N 34°33' E 138°32'611.5
2018-Jan-20 15:58N 34°34' E 138°39'811.4
2018-Jan-20 15:14N 34°35' E 138°49'510.4
2018-Jan-20 14:47N 34°36' E 138°55'2 8.9
2018-Jan-20 14:30N 34°36' E 138°57'510.8
2018-Jan-20 14:00N 34°40' E 139°02'2212.0
2018-Jan-20 12:12N 34°56' E 139°20'211.3
2018-Jan-20 12:00N 34°57' E 139°22'611.6
2018-Jan-20 11:30N 35°01' E 139°28'612.6
2018-Jan-20 11:00N 35°04' E 139°35'612.7
2018-Jan-20 10:30N 35°07' E 139°41'612.6
2018-Jan-20 10:00N 35°12' E 139°46'611.0
2018-Jan-20 09:30N 35°18' E 139°44'611.4
2018-Jan-20 09:00N 35°23' E 139°42'612.0
2018-Jan-20 08:30N 35°28' E 139°47'712.3
2018-Jan-20 07:56N 35°32' E 139°54'512.4
2018-Jan-20 07:30N 35°34' E 140°00'5 9.2
2018-Jan-20 07:00N 35°36' E 140°06'0 0.0
2018-Jan-20 06:29N 35°36' E 140°06'0 0.0
2018-Jan-20 05:59N 35°36' E 140°06'0 0.0
2018-Jan-20 05:29N 35°36' E 140°06'0 0.0
2018-Jan-20 04:59N 35°36' E 140°06'0 0.0
2018-Jan-20 04:29N 35°36' E 140°06'0 0.0
2018-Jan-20 03:59N 35°36' E 140°06'1 2.2
2018-Jan-20 03:31N 35°35' E 140°04'612.1
2018-Jan-20 03:00N 35°32' E 139°58'612.0
2018-Jan-20 02:30N 35°30' E 139°51'5 9.6
2018-Jan-20 02:01N 35°29' E 139°45'0 0.0
2018-Jan-20 01:29N 35°29' E 139°45'0 0.0
2018-Jan-20 00:59N 35°29' E 139°45'0 0.0
2018-Jan-20 00:29N 35°29' E 139°45'0 0.0
2018-Jan-19 23:59N 35°29' E 139°45'1 1.7
2018-Jan-19 23:30N 35°29' E 139°45'611.1
2018-Jan-19 22:58N 35°31' E 139°52'612.4
2018-Jan-19 22:30N 35°36' E 139°57'5 0.2
2018-Jan-18 23:59N 35°41' E 139°59'3 5.6
2018-Jan-18 23:30N 35°38' E 139°59'1 1.9
2018-Jan-18 22:53N 35°37' E 139°60'0 0.0
2018-Jan-18 22:29N 35°37' E 139°60'0 0.0
2018-Jan-18 21:59N 35°37' E 139°60'0 0.0
2018-Jan-18 21:29N 35°37' E 139°60'0 0.0
2018-Jan-18 20:47N 35°37' E 139°60'0 0.0
2018-Jan-18 20:29N 35°37' E 139°60'0 0.0
2018-Jan-18 19:59N 35°37' E 139°60'0 0.0
2018-Jan-18 19:29N 35°37' E 139°60'0 0.0
2018-Jan-18 18:59N 35°37' E 139°60'0 0.0
2018-Jan-18 18:29N 35°37' E 139°60'0 0.0
2018-Jan-18 17:59N 35°37' E 139°60'0 0.0
2018-Jan-18 17:29N 35°37' E 139°60'0 0.0
2018-Jan-18 16:59N 35°37' E 139°60'0 0.0
2018-Jan-18 16:29N 35°37' E 139°60'0 0.0
2018-Jan-18 15:59N 35°37' E 139°60'0 0.0
2018-Jan-18 15:29N 35°37' E 139°60'0 0.0
2018-Jan-18 14:53N 35°37' E 139°60'0 0.0
2018-Jan-18 14:29N 35°37' E 139°60'0 0.0
2018-Jan-18 13:59N 35°37' E 139°60'0 0.0
2018-Jan-18 13:29N 35°37' E 139°60'0 0.1
2018-Jan-18 13:00N 35°37' E 139°60'610.3
2018-Jan-18 12:26N 35°32' E 139°55'511.7
2018-Jan-18 12:01N 35°28' E 139°51'611.2
2018-Jan-18 11:31N 35°24' E 139°47'611.0
2018-Jan-18 11:01N 35°19' E 139°44'510.3
2018-Jan-18 10:31N 35°15' E 139°47'611.5
2018-Jan-18 10:00N 35°09' E 139°45'611.8
2018-Jan-18 09:30N 35°04' E 139°40'612.2
2018-Jan-18 08:59N 35°00' E 139°34'612.8
2018-Jan-18 08:30N 34°57' E 139°28'713.2
2018-Jan-18 08:00N 34°53' E 139°22'612.7
2018-Jan-18 07:30N 34°48' E 139°16'713.1
2018-Jan-18 07:00N 34°44' E 139°10'613.4
2018-Jan-18 06:30N 34°40' E 139°04'612.5
2018-Jan-18 06:00N 34°36' E 138°58'612.0
2018-Jan-18 05:30N 34°35' E 138°51'611.9
2018-Jan-18 04:58N 34°33' E 138°43'511.6
2018-Jan-18 04:30N 34°32' E 138°37'611.5
2018-Jan-18 03:59N 34°32' E 138°30'712.0
2018-Jan-18 03:26N 34°33' E 138°22'511.5
2018-Jan-18 03:00N 34°34' E 138°16'612.2
2018-Jan-18 02:29N 34°35' E 138°08'712.9
2018-Jan-18 01:58N 34°35' E 138°00'613.3
2018-Jan-18 01:29N 34°36' E 137°52'2613.1
2018-Jan-17 23:28N 34°34' E 137°20'  
Track history (hours):
 
Tides and Currents Weather Stations Pressure Air Temp Water Temp Dewpoint Dewpoint Depression Visibility Wind Speed Wind Dir Waves Ship Positions

Daiei Maru No.1

Last reported at 2018-Jan-23 07:27 UTC. Time now 2018-Jan-23 10:09 UTC.
Position N 34°07' E 132°46'.

Length 79 m; draft 4.2 m.

Type: Cargo ship. MMSI: 431005676.

Date/timePositionNaut miles runAvg speedWind from/ knotsBaromVisibWave heightAir tempDewpointWater temp
2018-Jan-23 07:27N 34°07' E 132°46'511.9
2018-Jan-23 07:00N 34°05' E 132°41'612.2
2018-Jan-23 06:30N 34°03' E 132°34'611.2
2018-Jan-23 05:57N 34°05' E 132°27'612.5
2018-Jan-23 05:30N 34°08' E 132°21'612.1
2018-Jan-23 05:01N 34°11' E 132°15'0 0.3
2018-Jan-23 04:28N 34°11' E 132°15'0 0.0
2018-Jan-23 03:43N 34°11' E 132°15'0 0.1
2018-Jan-23 03:28N 34°11' E 132°15'0 0.0
2018-Jan-23 02:58N 34°11' E 132°15'1 1.2
2018-Jan-23 02:30N 34°11' E 132°14'0 0.0
2018-Jan-23 02:00N 34°11' E 132°14'0 0.0
2018-Jan-23 01:29N 34°11' E 132°14'0 0.0
2018-Jan-23 00:59N 34°11' E 132°14'0 0.0
2018-Jan-23 00:29N 34°11' E 132°14'0 0.0
2018-Jan-22 23:56N 34°11' E 132°14'0 0.0
2018-Jan-22 23:29N 34°11' E 132°14'0 0.2
2018-Jan-22 23:00N 34°11' E 132°14'0 1.0
2018-Jan-22 22:29N 34°11' E 132°15'0 0.0
2018-Jan-22 21:59N 34°11' E 132°15'0 0.0
2018-Jan-22 21:29N 34°11' E 132°15'0 0.0
2018-Jan-22 20:56N 34°11' E 132°15'0 0.0
2018-Jan-22 20:29N 34°11' E 132°15'0 0.0
2018-Jan-22 19:59N 34°11' E 132°15'0 0.0
2018-Jan-22 19:29N 34°11' E 132°15'0 0.0
2018-Jan-22 18:59N 34°11' E 132°15'0 0.0
2018-Jan-22 18:26N 34°11' E 132°15'0 0.0
2018-Jan-22 17:59N 34°11' E 132°15'0 0.0
2018-Jan-22 17:29N 34°11' E 132°15'0 0.0
2018-Jan-22 16:59N 34°11' E 132°15'0 0.0
2018-Jan-22 16:29N 34°11' E 132°15'0 0.0
2018-Jan-22 15:59N 34°11' E 132°15'0 0.8
2018-Jan-22 15:30N 34°11' E 132°15'510.2
2018-Jan-22 15:00N 34°06' E 132°17'612.4
2018-Jan-22 14:30N 34°00' E 132°14'711.6
2018-Jan-22 13:55N 33°55' E 132°09'512.2
2018-Jan-22 13:29N 33°49' E 132°09'612.5
2018-Jan-22 13:00N 33°46' E 132°02'612.2
2018-Jan-22 12:30N 33°50' E 131°57'612.5
2018-Jan-22 12:00N 33°54' E 131°51'612.2
2018-Jan-22 11:30N 33°58' E 131°46'4 0.4
2018-Jan-22 01:37N 34°02' E 131°47'110.8
2018-Jan-22 01:30N 34°01' E 131°46'510.3
2018-Jan-22 01:00N 33°56' E 131°48'712.6
2018-Jan-22 00:27N 33°52' E 131°54'612.6
2018-Jan-22 00:00N 33°48' E 131°59'2311.4
2018-Jan-21 21:59N 33°51' E 132°27'613.0
2018-Jan-21 21:30N 33°53' E 132°34'713.5
2018-Jan-21 21:00N 33°57' E 132°41'7812.1
2018-Jan-21 14:32N 34°26' E 134°08'014.6
2018-Jan-21 14:30N 34°26' E 134°09'713.2
2018-Jan-21 14:00N 34°24' E 134°17'612.9
2018-Jan-21 13:31N 34°21' E 134°24'612.5
2018-Jan-21 13:00N 34°19' E 134°30'612.7
2018-Jan-21 12:30N 34°16' E 134°37'1013.0
2018-Jan-21 11:45N 34°08' E 134°45'312.3
2018-Jan-21 11:31N 34°06' E 134°47'712.3
2018-Jan-21 10:56N 34°01' E 134°53'511.9
2018-Jan-21 10:30N 33°57' E 134°57'611.5
2018-Jan-21 09:58N 33°52' E 135°02'81 9.4
2018-Jan-21 01:17N 34°05' E 136°39'512.7
2018-Jan-21 00:53N 34°08' E 136°44'6011.3
2018-Jan-20 19:35N 34°31' E 137°51'111.1
2018-Jan-20 19:30N 34°31' E 137°52'610.9
2018-Jan-20 18:55N 34°32' E 137°60'510.5
2018-Jan-20 18:28N 34°32' E 138°05'510.6
2018-Jan-20 18:00N 34°33' E 138°11'610.9
2018-Jan-20 17:24N 34°33' E 138°19'611.1
2018-Jan-20 16:54N 34°33' E 138°26'511.6
2018-Jan-20 16:30N 34°33' E 138°32'611.5
2018-Jan-20 15:58N 34°34' E 138°39'811.4
2018-Jan-20 15:14N 34°35' E 138°49'510.4
2018-Jan-20 14:47N 34°36' E 138°55'2 8.9
2018-Jan-20 14:30N 34°36' E 138°57'510.8
2018-Jan-20 14:00N 34°40' E 139°02'2212.0
2018-Jan-20 12:12N 34°56' E 139°20'211.3
2018-Jan-20 12:00N 34°57' E 139°22'611.6
2018-Jan-20 11:30N 35°01' E 139°28'612.6
2018-Jan-20 11:00N 35°04' E 139°35'612.7
2018-Jan-20 10:30N 35°07' E 139°41'612.6
2018-Jan-20 10:00N 35°12' E 139°46'611.0
2018-Jan-20 09:30N 35°18' E 139°44'611.4
2018-Jan-20 09:00N 35°23' E 139°42'612.0
2018-Jan-20 08:30N 35°28' E 139°47'712.3
2018-Jan-20 07:56N 35°32' E 139°54'512.4
2018-Jan-20 07:30N 35°34' E 140°00'5 9.2
2018-Jan-20 07:00N 35°36' E 140°06'0 0.0
2018-Jan-20 06:29N 35°36' E 140°06'0 0.0
2018-Jan-20 05:59N 35°36' E 140°06'0 0.0
2018-Jan-20 05:29N 35°36' E 140°06'0 0.0
2018-Jan-20 04:59N 35°36' E 140°06'0 0.0
2018-Jan-20 04:29N 35°36' E 140°06'0 0.0
2018-Jan-20 03:59N 35°36' E 140°06'1 2.2
2018-Jan-20 03:31N 35°35' E 140°04'612.1
2018-Jan-20 03:00N 35°32' E 139°58'612.0
2018-Jan-20 02:30N 35°30' E 139°51'5 9.6
2018-Jan-20 02:01N 35°29' E 139°45'0 0.0
2018-Jan-20 01:29N 35°29' E 139°45'0 0.0
2018-Jan-20 00:59N 35°29' E 139°45'0 0.0
2018-Jan-20 00:29N 35°29' E 139°45'0 0.0
2018-Jan-19 23:59N 35°29' E 139°45'1 1.7
2018-Jan-19 23:30N 35°29' E 139°45'611.1
2018-Jan-19 22:58N 35°31' E 139°52'612.4
2018-Jan-19 22:30N 35°36' E 139°57'5 0.2
2018-Jan-18 23:59N 35°41' E 139°59'3 5.6
2018-Jan-18 23:30N 35°38' E 139°59'1 1.9
2018-Jan-18 22:53N 35°37' E 139°60'0 0.0
2018-Jan-18 22:29N 35°37' E 139°60'0 0.0
2018-Jan-18 21:59N 35°37' E 139°60'0 0.0
2018-Jan-18 21:29N 35°37' E 139°60'0 0.0
2018-Jan-18 20:47N 35°37' E 139°60'0 0.0
2018-Jan-18 20:29N 35°37' E 139°60'0 0.0
2018-Jan-18 19:59N 35°37' E 139°60'0 0.0
2018-Jan-18 19:29N 35°37' E 139°60'0 0.0
2018-Jan-18 18:59N 35°37' E 139°60'0 0.0
2018-Jan-18 18:29N 35°37' E 139°60'0 0.0
2018-Jan-18 17:59N 35°37' E 139°60'0 0.0
2018-Jan-18 17:29N 35°37' E 139°60'0 0.0
2018-Jan-18 16:59N 35°37' E 139°60'0 0.0
2018-Jan-18 16:29N 35°37' E 139°60'0 0.0
2018-Jan-18 15:59N 35°37' E 139°60'0 0.0
2018-Jan-18 15:29N 35°37' E 139°60'0 0.0
2018-Jan-18 14:53N 35°37' E 139°60'0 0.0
2018-Jan-18 14:29N 35°37' E 139°60'0 0.0
2018-Jan-18 13:59N 35°37' E 139°60'0 0.0
2018-Jan-18 13:29N 35°37' E 139°60'0 0.1
2018-Jan-18 13:00N 35°37' E 139°60'610.3
2018-Jan-18 12:26N 35°32' E 139°55'511.7
2018-Jan-18 12:01N 35°28' E 139°51'611.2
2018-Jan-18 11:31N 35°24' E 139°47'611.0
2018-Jan-18 11:01N 35°19' E 139°44'510.3
2018-Jan-18 10:31N 35°15' E 139°47'611.5
2018-Jan-18 10:00N 35°09' E 139°45'611.8
2018-Jan-18 09:30N 35°04' E 139°40'612.2
2018-Jan-18 08:59N 35°00' E 139°34'612.8
2018-Jan-18 08:30N 34°57' E 139°28'713.2
2018-Jan-18 08:00N 34°53' E 139°22'612.7
2018-Jan-18 07:30N 34°48' E 139°16'713.1
2018-Jan-18 07:00N 34°44' E 139°10'613.4
2018-Jan-18 06:30N 34°40' E 139°04'612.5
2018-Jan-18 06:00N 34°36' E 138°58'612.0
2018-Jan-18 05:30N 34°35' E 138°51'611.9
2018-Jan-18 04:58N 34°33' E 138°43'511.6
2018-Jan-18 04:30N 34°32' E 138°37'611.5
2018-Jan-18 03:59N 34°32' E 138°30'712.0
2018-Jan-18 03:26N 34°33' E 138°22'511.5
2018-Jan-18 03:00N 34°34' E 138°16'612.2
2018-Jan-18 02:29N 34°35' E 138°08'712.9
2018-Jan-18 01:58N 34°35' E 138°00'613.3
2018-Jan-18 01:29N 34°36' E 137°52'2613.1
2018-Jan-17 23:28N 34°34' E 137°20'  

Dump ship's entire track history